sensor_id;sensor_type;location;lat;lon;timestamp;P1;durP1;ratioP1;P2;durP2;ratioP2
83099;SDS011;72972;51.784;4.660;2023-11-21T00:00:00;7.97;;;3.83;;
83099;SDS011;72972;51.784;4.660;2023-11-21T00:02:26;8.65;;;4.35;;
83099;SDS011;72972;51.784;4.660;2023-11-21T00:07:20;9.57;;;4.53;;
83099;SDS011;72972;51.784;4.660;2023-11-21T00:09:46;7.80;;;3.85;;
83099;SDS011;72972;51.784;4.660;2023-11-21T00:12:13;7.63;;;4.32;;
83099;SDS011;72972;51.784;4.660;2023-11-21T00:14:42;11.18;;;3.90;;
83099;SDS011;72972;51.784;4.660;2023-11-21T00:17:07;8.23;;;4.35;;
83099;SDS011;72972;51.784;4.660;2023-11-21T00:19:32;8.57;;;4.13;;
83099;SDS011;72972;51.784;4.660;2023-11-21T00:22:03;7.32;;;4.28;;
83099;SDS011;72972;51.784;4.660;2023-11-21T00:24:30;6.95;;;4.15;;
83099;SDS011;72972;51.784;4.660;2023-11-21T00:29:20;8.47;;;4.53;;
83099;SDS011;72972;51.784;4.660;2023-11-21T00:31:47;9.50;;;3.65;;
83099;SDS011;72972;51.784;4.660;2023-11-21T00:34:14;10.57;;;4.28;;
83099;SDS011;72972;51.784;4.660;2023-11-21T00:36:41;7.70;;;4.15;;
83099;SDS011;72972;51.784;4.660;2023-11-21T00:39:07;8.57;;;4.88;;
83099;SDS011;72972;51.784;4.660;2023-11-21T00:41:34;8.85;;;4.53;;
83099;SDS011;72972;51.784;4.660;2023-11-21T00:44:00;7.25;;;3.85;;
83099;SDS011;72972;51.784;4.660;2023-11-21T00:46:26;10.35;;;4.38;;
83099;SDS011;72972;51.784;4.660;2023-11-21T00:48:59;8.55;;;4.18;;
83099;SDS011;72972;51.784;4.660;2023-11-21T00:51:26;13.43;;;4.43;;
83099;SDS011;72972;51.784;4.660;2023-11-21T00:53:52;10.10;;;4.43;;
83099;SDS011;72972;51.784;4.660;2023-11-21T00:56:18;9.40;;;4.20;;
83099;SDS011;72972;51.784;4.660;2023-11-21T00:58:45;11.88;;;4.82;;
83099;SDS011;72972;51.784;4.660;2023-11-21T01:01:16;8.82;;;4.47;;
83099;SDS011;72972;51.784;4.660;2023-11-21T01:03:47;9.02;;;4.32;;
83099;SDS011;72972;51.784;4.660;2023-11-21T01:06:13;10.73;;;4.47;;
83099;SDS011;72972;51.784;4.660;2023-11-21T01:08:40;9.45;;;4.88;;
83099;SDS011;72972;51.784;4.660;2023-11-21T01:11:07;14.05;;;5.50;;
83099;SDS011;72972;51.784;4.660;2023-11-21T01:13:34;10.18;;;4.88;;
83099;SDS011;72972;51.784;4.660;2023-11-21T01:16:01;14.20;;;5.35;;
83099;SDS011;72972;51.784;4.660;2023-11-21T01:18:27;8.73;;;4.80;;
83099;SDS011;72972;51.784;4.660;2023-11-21T01:20:54;12.23;;;5.70;;
83099;SDS011;72972;51.784;4.660;2023-11-21T01:23:20;11.90;;;5.88;;
83099;SDS011;72972;51.784;4.660;2023-11-21T01:25:47;12.15;;;5.05;;
83099;SDS011;72972;51.784;4.660;2023-11-21T01:28:14;10.73;;;5.38;;
83099;SDS011;72972;51.784;4.660;2023-11-21T01:30:41;11.30;;;4.78;;
83099;SDS011;72972;51.784;4.660;2023-11-21T01:33:07;11.07;;;5.05;;
83099;SDS011;72972;51.784;4.660;2023-11-21T01:35:35;10.85;;;5.10;;
83099;SDS011;72972;51.784;4.660;2023-11-21T01:38:00;9.90;;;4.85;;
83099;SDS011;72972;51.784;4.660;2023-11-21T01:40:27;12.15;;;5.32;;
83099;SDS011;72972;51.784;4.660;2023-11-21T01:42:53;9.52;;;5.05;;
83099;SDS011;72972;51.784;4.660;2023-11-21T01:45:22;10.85;;;5.20;;
83099;SDS011;72972;51.784;4.660;2023-11-21T01:47:51;11.30;;;5.20;;
83099;SDS011;72972;51.784;4.660;2023-11-21T01:50:17;11.93;;;5.07;;
83099;SDS011;72972;51.784;4.660;2023-11-21T01:52:45;11.60;;;5.32;;
83099;SDS011;72972;51.784;4.660;2023-11-21T01:55:16;12.68;;;5.80;;
83099;SDS011;72972;51.784;4.660;2023-11-21T01:57:47;11.35;;;5.43;;
83099;SDS011;72972;51.784;4.660;2023-11-21T02:00:14;11.10;;;4.97;;
83099;SDS011;72972;51.784;4.660;2023-11-21T02:02:48;9.73;;;4.95;;
83099;SDS011;72972;51.784;4.660;2023-11-21T02:05:18;10.68;;;5.20;;
83099;SDS011;72972;51.784;4.660;2023-11-21T02:07:44;11.25;;;5.75;;
83099;SDS011;72972;51.784;4.660;2023-11-21T02:10:14;13.40;;;5.00;;
83099;SDS011;72972;51.784;4.660;2023-11-21T02:12:49;12.90;;;5.60;;
83099;SDS011;72972;51.784;4.660;2023-11-21T02:15:19;10.63;;;5.03;;
83099;SDS011;72972;51.784;4.660;2023-11-21T02:17:49;10.27;;;5.05;;
83099;SDS011;72972;51.784;4.660;2023-11-21T02:20:18;11.65;;;5.18;;
83099;SDS011;72972;51.784;4.660;2023-11-21T02:25:29;7.32;;;4.13;;
83099;SDS011;72972;51.784;4.660;2023-11-21T02:27:56;10.93;;;4.78;;
83099;SDS011;72972;51.784;4.660;2023-11-21T02:30:27;11.43;;;5.18;;
83099;SDS011;72972;51.784;4.660;2023-11-21T02:32:53;11.07;;;5.28;;
83099;SDS011;72972;51.784;4.660;2023-11-21T02:35:21;10.90;;;4.60;;
83099;SDS011;72972;51.784;4.660;2023-11-21T02:37:47;8.68;;;4.97;;
83099;SDS011;72972;51.784;4.660;2023-11-21T02:40:18;10.95;;;5.15;;
83099;SDS011;72972;51.784;4.660;2023-11-21T02:42:48;10.77;;;5.07;;
83099;SDS011;72972;51.784;4.660;2023-11-21T02:45:18;9.68;;;5.53;;
83099;SDS011;72972;51.784;4.660;2023-11-21T02:47:50;7.75;;;4.55;;
83099;SDS011;72972;51.784;4.660;2023-11-21T02:50:18;11.57;;;5.00;;
83099;SDS011;72972;51.784;4.660;2023-11-21T02:52:44;10.93;;;4.65;;
83099;SDS011;72972;51.784;4.660;2023-11-21T02:55:11;12.77;;;5.15;;
83099;SDS011;72972;51.784;4.660;2023-11-21T02:57:37;11.90;;;4.90;;
83099;SDS011;72972;51.784;4.660;2023-11-21T03:00:07;8.77;;;5.20;;
83099;SDS011;72972;51.784;4.660;2023-11-21T03:02:34;10.07;;;4.93;;
83099;SDS011;72972;51.784;4.660;2023-11-21T03:05:06;8.75;;;4.80;;
83099;SDS011;72972;51.784;4.660;2023-11-21T03:07:33;11.25;;;5.13;;
83099;SDS011;72972;51.784;4.660;2023-11-21T03:09:58;7.70;;;4.57;;
83099;SDS011;72972;51.784;4.660;2023-11-21T03:12:25;8.95;;;5.03;;
83099;SDS011;72972;51.784;4.660;2023-11-21T03:14:51;10.70;;;4.88;;
83099;SDS011;72972;51.784;4.660;2023-11-21T03:17:17;9.30;;;4.65;;
83099;SDS011;72972;51.784;4.660;2023-11-21T03:19:42;8.73;;;4.30;;
83099;SDS011;72972;51.784;4.660;2023-11-21T03:22:09;9.18;;;5.25;;
83099;SDS011;72972;51.784;4.660;2023-11-21T03:24:36;10.68;;;4.78;;
83099;SDS011;72972;51.784;4.660;2023-11-21T03:27:04;9.35;;;4.60;;
83099;SDS011;72972;51.784;4.660;2023-11-21T03:29:31;13.05;;;5.57;;
83099;SDS011;72972;51.784;4.660;2023-11-21T03:31:56;9.32;;;4.78;;
83099;SDS011;72972;51.784;4.660;2023-11-21T03:34:26;12.68;;;5.05;;
83099;SDS011;72972;51.784;4.660;2023-11-21T03:39:22;10.03;;;4.90;;
83099;SDS011;72972;51.784;4.660;2023-11-21T03:41:47;11.13;;;4.80;;
83099;SDS011;72972;51.784;4.660;2023-11-21T03:44:14;11.95;;;5.57;;
83099;SDS011;72972;51.784;4.660;2023-11-21T03:46:41;8.48;;;4.55;;
83099;SDS011;72972;51.784;4.660;2023-11-21T03:49:09;10.93;;;5.05;;
83099;SDS011;72972;51.784;4.660;2023-11-21T03:51:36;9.35;;;4.78;;
83099;SDS011;72972;51.784;4.660;2023-11-21T03:54:03;9.63;;;4.50;;
83099;SDS011;72972;51.784;4.660;2023-11-21T03:56:29;8.82;;;4.15;;
83099;SDS011;72972;51.784;4.660;2023-11-21T04:01:24;9.50;;;5.43;;
83099;SDS011;72972;51.784;4.660;2023-11-21T04:03:50;10.93;;;5.75;;
83099;SDS011;72972;51.784;4.660;2023-11-21T04:06:17;11.90;;;5.68;;
83099;SDS011;72972;51.784;4.660;2023-11-21T04:08:44;13.80;;;5.75;;
83099;SDS011;72972;51.784;4.660;2023-11-21T04:11:12;9.25;;;4.50;;
83099;SDS011;72972;51.784;4.660;2023-11-21T04:13:38;11.15;;;5.35;;
83099;SDS011;72972;51.784;4.660;2023-11-21T04:16:05;12.23;;;5.07;;
83099;SDS011;72972;51.784;4.660;2023-11-21T04:18:35;9.20;;;5.22;;
83099;SDS011;72972;51.784;4.660;2023-11-21T04:21:02;9.85;;;4.80;;
83099;SDS011;72972;51.784;4.660;2023-11-21T04:23:28;8.48;;;4.70;;
83099;SDS011;72972;51.784;4.660;2023-11-21T04:25:58;9.15;;;4.57;;
83099;SDS011;72972;51.784;4.660;2023-11-21T04:28:35;11.43;;;4.05;;
83099;SDS011;72972;51.784;4.660;2023-11-21T04:31:02;9.70;;;4.80;;
83099;SDS011;72972;51.784;4.660;2023-11-21T04:33:27;9.18;;;5.05;;
83099;SDS011;72972;51.784;4.660;2023-11-21T04:38:21;10.90;;;4.80;;
83099;SDS011;72972;51.784;4.660;2023-11-21T04:40:46;12.02;;;4.55;;
83099;SDS011;72972;51.784;4.660;2023-11-21T04:43:13;12.20;;;4.70;;
83099;SDS011;72972;51.784;4.660;2023-11-21T04:45:42;16.63;;;5.47;;
83099;SDS011;72972;51.784;4.660;2023-11-21T04:48:08;13.35;;;4.78;;
83099;SDS011;72972;51.784;4.660;2023-11-21T04:50:39;11.63;;;5.05;;
83099;SDS011;72972;51.784;4.660;2023-11-21T04:53:06;8.35;;;4.63;;
83099;SDS011;72972;51.784;4.660;2023-11-21T04:55:32;13.00;;;5.03;;
83099;SDS011;72972;51.784;4.660;2023-11-21T04:57:58;9.23;;;4.43;;
83099;SDS011;72972;51.784;4.660;2023-11-21T05:00:24;9.95;;;5.10;;
83099;SDS011;72972;51.784;4.660;2023-11-21T05:05:18;9.60;;;4.95;;
83099;SDS011;72972;51.784;4.660;2023-11-21T05:07:45;8.18;;;4.10;;
83099;SDS011;72972;51.784;4.660;2023-11-21T05:10:16;10.27;;;4.47;;
83099;SDS011;72972;51.784;4.660;2023-11-21T05:12:42;10.63;;;4.03;;
83099;SDS011;72972;51.784;4.660;2023-11-21T05:15:08;13.20;;;5.35;;
83099;SDS011;72972;51.784;4.660;2023-11-21T05:17:36;11.15;;;4.63;;
83099;SDS011;72972;51.784;4.660;2023-11-21T05:20:04;14.93;;;5.95;;
83099;SDS011;72972;51.784;4.660;2023-11-21T05:22:34;10.63;;;5.32;;
83099;SDS011;72972;51.784;4.660;2023-11-21T05:25:02;14.90;;;5.60;;
83099;SDS011;72972;51.784;4.660;2023-11-21T05:27:37;15.52;;;5.38;;
83099;SDS011;72972;51.784;4.660;2023-11-21T05:30:04;12.43;;;5.38;;
83099;SDS011;72972;51.784;4.660;2023-11-21T05:32:35;15.50;;;5.95;;
83099;SDS011;72972;51.784;4.660;2023-11-21T05:35:02;11.75;;;5.75;;
83099;SDS011;72972;51.784;4.660;2023-11-21T05:37:34;16.70;;;6.60;;
83099;SDS011;72972;51.784;4.660;2023-11-21T05:39:59;12.73;;;5.90;;
83099;SDS011;72972;51.784;4.660;2023-11-21T05:42:32;13.98;;;5.60;;
83099;SDS011;72972;51.784;4.660;2023-11-21T05:45:00;14.63;;;6.10;;
83099;SDS011;72972;51.784;4.660;2023-11-21T05:50:01;13.00;;;5.35;;
83099;SDS011;72972;51.784;4.660;2023-11-21T05:52:28;15.27;;;6.00;;
83099;SDS011;72972;51.784;4.660;2023-11-21T05:54:54;13.38;;;5.78;;
83099;SDS011;72972;51.784;4.660;2023-11-21T05:57:20;12.30;;;5.57;;
83099;SDS011;72972;51.784;4.660;2023-11-21T05:59:48;14.25;;;6.10;;
83099;SDS011;72972;51.784;4.660;2023-11-21T06:02:17;11.07;;;6.20;;
83099;SDS011;72972;51.784;4.660;2023-11-21T06:04:44;11.85;;;4.90;;
83099;SDS011;72972;51.784;4.660;2023-11-21T06:07:12;12.20;;;5.13;;
83099;SDS011;72972;51.784;4.660;2023-11-21T06:09:38;13.27;;;5.60;;
83099;SDS011;72972;51.784;4.660;2023-11-21T06:12:05;16.52;;;5.88;;
83099;SDS011;72972;51.784;4.660;2023-11-21T06:14:33;10.93;;;5.57;;
83099;SDS011;72972;51.784;4.660;2023-11-21T06:17:01;10.38;;;5.25;;
83099;SDS011;72972;51.784;4.660;2023-11-21T06:19:28;11.10;;;4.90;;
83099;SDS011;72972;51.784;4.660;2023-11-21T06:21:55;15.80;;;5.53;;
83099;SDS011;72972;51.784;4.660;2023-11-21T06:24:20;8.35;;;4.25;;
83099;SDS011;72972;51.784;4.660;2023-11-21T06:26:49;10.30;;;5.00;;
83099;SDS011;72972;51.784;4.660;2023-11-21T06:29:15;12.50;;;5.38;;
83099;SDS011;72972;51.784;4.660;2023-11-21T06:31:45;10.55;;;5.00;;
83099;SDS011;72972;51.784;4.660;2023-11-21T06:34:12;14.02;;;6.05;;
83099;SDS011;72972;51.784;4.660;2023-11-21T06:36:40;11.63;;;5.18;;
83099;SDS011;72972;51.784;4.660;2023-11-21T06:39:06;16.85;;;5.15;;
83099;SDS011;72972;51.784;4.660;2023-11-21T06:41:35;12.43;;;5.15;;
83099;SDS011;72972;51.784;4.660;2023-11-21T06:44:04;14.10;;;5.25;;
83099;SDS011;72972;51.784;4.660;2023-11-21T06:46:31;18.60;;;5.97;;
83099;SDS011;72972;51.784;4.660;2023-11-21T06:48:57;10.95;;;5.03;;
83099;SDS011;72972;51.784;4.660;2023-11-21T06:51:24;10.57;;;5.00;;
83099;SDS011;72972;51.784;4.660;2023-11-21T06:53:50;11.02;;;5.30;;
83099;SDS011;72972;51.784;4.660;2023-11-21T06:56:17;15.82;;;5.93;;
83099;SDS011;72972;51.784;4.660;2023-11-21T06:58:45;11.30;;;5.60;;
83099;SDS011;72972;51.784;4.660;2023-11-21T07:01:15;10.80;;;5.22;;
83099;SDS011;72972;51.784;4.660;2023-11-21T07:03:41;14.13;;;5.47;;
83099;SDS011;72972;51.784;4.660;2023-11-21T07:06:08;11.40;;;5.57;;
83099;SDS011;72972;51.784;4.660;2023-11-21T07:08:35;11.30;;;4.68;;
83099;SDS011;72972;51.784;4.660;2023-11-21T07:11:00;13.23;;;5.35;;
83099;SDS011;72972;51.784;4.660;2023-11-21T07:13:28;12.75;;;5.20;;
83099;SDS011;72972;51.784;4.660;2023-11-21T07:15:54;11.20;;;5.13;;
83099;SDS011;72972;51.784;4.660;2023-11-21T07:18:19;12.73;;;4.80;;
83099;SDS011;72972;51.784;4.660;2023-11-21T07:20:45;13.10;;;5.18;;
83099;SDS011;72972;51.784;4.660;2023-11-21T07:23:11;13.05;;;4.47;;
83099;SDS011;72972;51.784;4.660;2023-11-21T07:25:37;12.18;;;5.20;;
83099;SDS011;72972;51.784;4.660;2023-11-21T07:28:03;10.70;;;5.18;;
83099;SDS011;72972;51.784;4.660;2023-11-21T07:30:32;12.93;;;5.43;;
83099;SDS011;72972;51.784;4.660;2023-11-21T07:32:58;9.63;;;5.07;;
83099;SDS011;72972;51.784;4.660;2023-11-21T07:35:23;10.13;;;4.82;;
83099;SDS011;72972;51.784;4.660;2023-11-21T07:37:50;10.98;;;5.05;;
83099;SDS011;72972;51.784;4.660;2023-11-21T07:40:16;10.38;;;5.30;;
83099;SDS011;72972;51.784;4.660;2023-11-21T07:42:43;11.95;;;5.25;;
83099;SDS011;72972;51.784;4.660;2023-11-21T07:45:10;16.35;;;5.00;;
83099;SDS011;72972;51.784;4.660;2023-11-21T07:47:40;12.35;;;5.30;;
83099;SDS011;72972;51.784;4.660;2023-11-21T07:50:06;10.70;;;5.70;;
83099;SDS011;72972;51.784;4.660;2023-11-21T07:52:32;11.30;;;5.57;;
83099;SDS011;72972;51.784;4.660;2023-11-21T07:55:00;13.18;;;6.35;;
83099;SDS011;72972;51.784;4.660;2023-11-21T07:57:28;14.35;;;5.85;;
83099;SDS011;72972;51.784;4.660;2023-11-21T07:59:53;9.30;;;5.00;;
83099;SDS011;72972;51.784;4.660;2023-11-21T08:02:20;11.00;;;5.20;;
83099;SDS011;72972;51.784;4.660;2023-11-21T08:04:46;9.73;;;5.40;;
83099;SDS011;72972;51.784;4.660;2023-11-21T08:07:17;12.90;;;5.18;;
83099;SDS011;72972;51.784;4.660;2023-11-21T08:09:43;14.77;;;5.18;;
83099;SDS011;72972;51.784;4.660;2023-11-21T08:12:09;14.77;;;4.93;;
83099;SDS011;72972;51.784;4.660;2023-11-21T08:14:36;10.00;;;4.22;;
83099;SDS011;72972;51.784;4.660;2023-11-21T08:17:04;10.35;;;4.03;;
83099;SDS011;72972;51.784;4.660;2023-11-21T08:19:32;12.05;;;4.20;;
83099;SDS011;72972;51.784;4.660;2023-11-21T08:21:59;7.68;;;3.88;;
83099;SDS011;72972;51.784;4.660;2023-11-21T08:24:25;15.20;;;4.47;;
83099;SDS011;72972;51.784;4.660;2023-11-21T08:26:52;9.50;;;4.03;;
83099;SDS011;72972;51.784;4.660;2023-11-21T08:29:19;11.52;;;4.07;;
83099;SDS011;72972;51.784;4.660;2023-11-21T08:31:46;9.02;;;3.88;;
83099;SDS011;72972;51.784;4.660;2023-11-21T08:34:13;6.80;;;3.63;;
83099;SDS011;72972;51.784;4.660;2023-11-21T08:36:44;12.15;;;3.83;;
83099;SDS011;72972;51.784;4.660;2023-11-21T08:39:12;10.35;;;3.85;;
83099;SDS011;72972;51.784;4.660;2023-11-21T08:41:43;7.95;;;3.58;;
83099;SDS011;72972;51.784;4.660;2023-11-21T08:44:12;10.55;;;4.22;;
83099;SDS011;72972;51.784;4.660;2023-11-21T08:46:37;10.63;;;3.80;;
83099;SDS011;72972;51.784;4.660;2023-11-21T08:49:05;9.25;;;3.95;;
83099;SDS011;72972;51.784;4.660;2023-11-21T08:51:31;8.60;;;3.58;;
83099;SDS011;72972;51.784;4.660;2023-11-21T08:53:56;14.32;;;3.88;;
83099;SDS011;72972;51.784;4.660;2023-11-21T08:56:26;10.10;;;3.75;;
83099;SDS011;72972;51.784;4.660;2023-11-21T08:58:52;15.10;;;4.25;;
83099;SDS011;72972;51.784;4.660;2023-11-21T09:01:17;6.57;;;3.20;;
83099;SDS011;72972;51.784;4.660;2023-11-21T09:03:42;9.88;;;4.10;;
83099;SDS011;72972;51.784;4.660;2023-11-21T09:06:09;7.47;;;3.60;;
83099;SDS011;72972;51.784;4.660;2023-11-21T09:08:36;8.52;;;4.28;;
83099;SDS011;72972;51.784;4.660;2023-11-21T09:11:05;7.72;;;3.90;;
83099;SDS011;72972;51.784;4.660;2023-11-21T09:13:32;10.65;;;4.07;;
83099;SDS011;72972;51.784;4.660;2023-11-21T09:16:00;10.20;;;4.38;;
83099;SDS011;72972;51.784;4.660;2023-11-21T09:18:27;7.90;;;4.20;;
83099;SDS011;72972;51.784;4.660;2023-11-21T09:23:17;11.27;;;4.33;;
83099;SDS011;72972;51.784;4.660;2023-11-21T09:25:43;9.88;;;3.92;;
83099;SDS011;72972;51.784;4.660;2023-11-21T09:28:11;9.40;;;4.63;;
83099;SDS011;72972;51.784;4.660;2023-11-21T09:30:38;9.25;;;4.88;;
83099;SDS011;72972;51.784;4.660;2023-11-21T09:33:04;10.98;;;4.90;;
83099;SDS011;72972;51.784;4.660;2023-11-21T09:35:33;11.60;;;5.00;;
83099;SDS011;72972;51.784;4.660;2023-11-21T09:37:59;10.35;;;4.65;;
83099;SDS011;72972;51.784;4.660;2023-11-21T09:40:27;11.55;;;4.95;;
83099;SDS011;72972;51.784;4.660;2023-11-21T09:45:27;12.47;;;5.43;;
83099;SDS011;72972;51.784;4.660;2023-11-21T09:47:56;12.30;;;5.40;;
83099;SDS011;72972;51.784;4.660;2023-11-21T09:50:22;8.07;;;4.50;;
83099;SDS011;72972;51.784;4.660;2023-11-21T09:55:25;9.63;;;3.97;;
83099;SDS011;72972;51.784;4.660;2023-11-21T10:00:18;12.17;;;4.57;;
83099;SDS011;72972;51.784;4.660;2023-11-21T10:02:49;12.27;;;4.95;;
83099;SDS011;72972;51.784;4.660;2023-11-21T10:05:16;10.50;;;4.78;;
83099;SDS011;72972;51.784;4.660;2023-11-21T10:07:44;9.43;;;4.68;;
83099;SDS011;72972;51.784;4.660;2023-11-21T10:10:11;12.23;;;5.00;;
83099;SDS011;72972;51.784;4.660;2023-11-21T10:12:40;9.63;;;4.40;;
83099;SDS011;72972;51.784;4.660;2023-11-21T10:15:17;9.75;;;4.32;;
83099;SDS011;72972;51.784;4.660;2023-11-21T10:17:42;8.25;;;4.13;;
83099;SDS011;72972;51.784;4.660;2023-11-21T10:20:11;8.38;;;3.88;;
83099;SDS011;72972;51.784;4.660;2023-11-21T10:22:42;8.85;;;4.72;;
83099;SDS011;72972;51.784;4.660;2023-11-21T10:25:09;10.63;;;3.97;;
83099;SDS011;72972;51.784;4.660;2023-11-21T10:27:40;12.43;;;4.32;;
83099;SDS011;72972;51.784;4.660;2023-11-21T10:30:07;10.07;;;4.00;;
83099;SDS011;72972;51.784;4.660;2023-11-21T10:32:41;7.63;;;3.53;;
83099;SDS011;72972;51.784;4.660;2023-11-21T10:35:08;8.20;;;2.97;;
83099;SDS011;72972;51.784;4.660;2023-11-21T10:37:39;8.60;;;3.60;;
83099;SDS011;72972;51.784;4.660;2023-11-21T10:40:06;7.25;;;3.22;;
83099;SDS011;72972;51.784;4.660;2023-11-21T10:42:34;10.52;;;4.47;;
83099;SDS011;72972;51.784;4.660;2023-11-21T10:44:59;5.82;;;2.90;;
83099;SDS011;72972;51.784;4.660;2023-11-21T10:47:25;7.82;;;3.40;;
83099;SDS011;72972;51.784;4.660;2023-11-21T10:52:18;7.22;;;3.20;;
83099;SDS011;72972;51.784;4.660;2023-11-21T10:54:45;9.05;;;3.50;;
83099;SDS011;72972;51.784;4.660;2023-11-21T10:57:13;7.38;;;3.25;;
83099;SDS011;72972;51.784;4.660;2023-11-21T10:59:43;8.40;;;3.25;;
83099;SDS011;72972;51.784;4.660;2023-11-21T11:04:53;6.50;;;2.42;;
83099;SDS011;72972;51.784;4.660;2023-11-21T11:07:26;5.10;;;2.63;;
83099;SDS011;72972;51.784;4.660;2023-11-21T11:12:19;3.87;;;2.13;;
83099;SDS011;72972;51.784;4.660;2023-11-21T11:14:44;5.93;;;2.50;;
83099;SDS011;72972;51.784;4.660;2023-11-21T11:17:10;4.57;;;2.20;;
83099;SDS011;72972;51.784;4.660;2023-11-21T11:19:37;6.05;;;2.70;;
83099;SDS011;72972;51.784;4.660;2023-11-21T11:38:57;5.93;;;3.17;;
83099;SDS011;72972;51.784;4.660;2023-11-21T11:41:27;7.40;;;3.72;;
83099;SDS011;72972;51.784;4.660;2023-11-21T11:43:58;8.60;;;3.15;;
83099;SDS011;72972;51.784;4.660;2023-11-21T11:46:44;6.95;;;3.58;;
83099;SDS011;72972;51.784;4.660;2023-11-21T11:49:28;6.32;;;3.22;;
83099;SDS011;72972;51.784;4.660;2023-11-21T11:55:06;6.60;;;3.13;;
83099;SDS011;72972;51.784;4.660;2023-11-21T11:57:38;8.95;;;4.15;;
83099;SDS011;72972;51.784;4.660;2023-11-21T12:02:57;8.80;;;3.65;;
83099;SDS011;72972;51.784;4.660;2023-11-21T12:05:26;10.07;;;4.35;;
83099;SDS011;72972;51.784;4.660;2023-11-21T12:08:03;9.95;;;4.82;;
83099;SDS011;72972;51.784;4.660;2023-11-21T12:10:31;11.25;;;4.57;;
83099;SDS011;72972;51.784;4.660;2023-11-21T12:12:58;13.68;;;5.07;;
83099;SDS011;72972;51.784;4.660;2023-11-21T12:15:32;12.35;;;4.78;;
83099;SDS011;72972;51.784;4.660;2023-11-21T12:18:00;15.32;;;5.63;;
83099;SDS011;72972;51.784;4.660;2023-11-21T12:20:26;9.90;;;4.35;;
83099;SDS011;72972;51.784;4.660;2023-11-21T12:25:47;14.55;;;5.57;;
83099;SDS011;72972;51.784;4.660;2023-11-21T12:28:12;15.90;;;5.47;;
83099;SDS011;72972;51.784;4.660;2023-11-21T12:30:38;12.63;;;5.50;;
83099;SDS011;72972;51.784;4.660;2023-11-21T12:33:05;10.95;;;4.53;;
83099;SDS011;72972;51.784;4.660;2023-11-21T12:35:36;12.80;;;5.38;;
83099;SDS011;72972;51.784;4.660;2023-11-21T12:38:04;13.20;;;5.63;;
83099;SDS011;72972;51.784;4.660;2023-11-21T12:40:31;12.95;;;5.82;;
83099;SDS011;72972;51.784;4.660;2023-11-21T12:42:57;13.90;;;5.53;;
83099;SDS011;72972;51.784;4.660;2023-11-21T12:45:27;12.27;;;5.43;;
83099;SDS011;72972;51.784;4.660;2023-11-21T12:50:19;12.48;;;5.13;;
83099;SDS011;72972;51.784;4.660;2023-11-21T12:52:50;13.60;;;5.90;;
83099;SDS011;72972;51.784;4.660;2023-11-21T12:55:17;13.50;;;5.28;;
83099;SDS011;72972;51.784;4.660;2023-11-21T12:57:50;15.23;;;5.40;;
83099;SDS011;72972;51.784;4.660;2023-11-21T13:00:18;18.42;;;5.93;;
83099;SDS011;72972;51.784;4.660;2023-11-21T13:02:55;14.43;;;5.88;;
83099;SDS011;72972;51.784;4.660;2023-11-21T13:05:28;14.40;;;5.53;;
83099;SDS011;72972;51.784;4.660;2023-11-21T13:08:35;18.05;;;6.35;;
83099;SDS011;72972;51.784;4.660;2023-11-21T13:11:05;14.10;;;5.82;;
83099;SDS011;72972;51.784;4.660;2023-11-21T13:13:31;14.90;;;5.57;;
83099;SDS011;72972;51.784;4.660;2023-11-21T13:16:02;15.15;;;5.35;;
83099;SDS011;72972;51.784;4.660;2023-11-21T13:18:32;13.27;;;5.88;;
83099;SDS011;72972;51.784;4.660;2023-11-21T13:20:59;14.05;;;5.70;;
83099;SDS011;72972;51.784;4.660;2023-11-21T13:23:42;16.08;;;5.72;;
83099;SDS011;72972;51.784;4.660;2023-11-21T13:26:11;11.27;;;4.95;;
83099;SDS011;72972;51.784;4.660;2023-11-21T13:28:38;12.88;;;5.53;;
83099;SDS011;72972;51.784;4.660;2023-11-21T13:31:06;13.18;;;6.30;;
83099;SDS011;72972;51.784;4.660;2023-11-21T13:33:46;13.95;;;5.45;;
83099;SDS011;72972;51.784;4.660;2023-11-21T13:36:20;14.68;;;5.25;;
83099;SDS011;72972;51.784;4.660;2023-11-21T13:38:48;16.38;;;5.97;;
83099;SDS011;72972;51.784;4.660;2023-11-21T13:41:15;13.00;;;5.15;;
83099;SDS011;72972;51.784;4.660;2023-11-21T13:43:43;12.40;;;5.43;;
83099;SDS011;72972;51.784;4.660;2023-11-21T13:46:15;14.20;;;5.25;;
83099;SDS011;72972;51.784;4.660;2023-11-21T13:48:47;17.35;;;5.80;;
83099;SDS011;72972;51.784;4.660;2023-11-21T13:51:17;11.57;;;5.10;;
83099;SDS011;72972;51.784;4.660;2023-11-21T13:53:48;13.77;;;5.38;;
83099;SDS011;72972;51.784;4.660;2023-11-21T13:56:17;11.70;;;4.82;;
83099;SDS011;72972;51.784;4.660;2023-11-21T13:58:47;12.98;;;5.03;;
83099;SDS011;72972;51.784;4.660;2023-11-21T14:01:24;15.60;;;5.40;;
83099;SDS011;72972;51.784;4.660;2023-11-21T14:04:20;12.65;;;5.57;;
83099;SDS011;72972;51.784;4.660;2023-11-21T14:07:00;12.88;;;4.82;;
83099;SDS011;72972;51.784;4.660;2023-11-21T14:09:40;12.93;;;5.57;;
83099;SDS011;72972;51.784;4.660;2023-11-21T14:12:09;19.85;;;6.53;;
83099;SDS011;72972;51.784;4.660;2023-11-21T14:14:37;13.82;;;5.15;;
83099;SDS011;72972;51.784;4.660;2023-11-21T14:17:04;12.43;;;5.18;;
83099;SDS011;72972;51.784;4.660;2023-11-21T14:19:33;13.00;;;5.45;;
83099;SDS011;72972;51.784;4.660;2023-11-21T14:22:01;12.23;;;4.93;;
83099;SDS011;72972;51.784;4.660;2023-11-21T14:24:27;14.55;;;6.32;;
83099;SDS011;72972;51.784;4.660;2023-11-21T14:26:54;14.45;;;5.68;;
83099;SDS011;72972;51.784;4.660;2023-11-21T14:29:19;13.73;;;5.32;;
83099;SDS011;72972;51.784;4.660;2023-11-21T14:31:46;11.77;;;5.60;;
83099;SDS011;72972;51.784;4.660;2023-11-21T14:34:12;14.80;;;5.65;;
83099;SDS011;72972;51.784;4.660;2023-11-21T14:36:41;17.75;;;6.22;;
83099;SDS011;72972;51.784;4.660;2023-11-21T14:39:09;15.73;;;6.53;;
83099;SDS011;72972;51.784;4.660;2023-11-21T14:41:45;17.77;;;7.40;;
83099;SDS011;72972;51.784;4.660;2023-11-21T14:44:12;15.38;;;6.30;;
83099;SDS011;72972;51.784;4.660;2023-11-21T14:46:42;17.02;;;7.10;;
83099;SDS011;72972;51.784;4.660;2023-11-21T14:49:12;18.55;;;8.55;;
83099;SDS011;72972;51.784;4.660;2023-11-21T14:51:49;14.18;;;6.43;;
83099;SDS011;72972;51.784;4.660;2023-11-21T14:54:33;15.65;;;6.57;;
83099;SDS011;72972;51.784;4.660;2023-11-21T14:57:21;22.52;;;8.02;;
83099;SDS011;72972;51.784;4.660;2023-11-21T14:59:49;18.02;;;7.93;;
83099;SDS011;72972;51.784;4.660;2023-11-21T15:02:22;17.63;;;7.75;;
83099;SDS011;72972;51.784;4.660;2023-11-21T15:05:07;18.52;;;8.20;;
83099;SDS011;72972;51.784;4.660;2023-11-21T15:07:41;21.90;;;8.82;;
83099;SDS011;72972;51.784;4.660;2023-11-21T15:10:07;20.10;;;8.98;;
83099;SDS011;72972;51.784;4.660;2023-11-21T15:12:41;16.85;;;7.43;;
83099;SDS011;72972;51.784;4.660;2023-11-21T15:15:08;20.13;;;7.47;;
83099;SDS011;72972;51.784;4.660;2023-11-21T15:17:37;19.60;;;7.63;;
83099;SDS011;72972;51.784;4.660;2023-11-21T15:20:04;25.13;;;8.93;;
83099;SDS011;72972;51.784;4.660;2023-11-21T15:22:33;24.27;;;8.48;;
83099;SDS011;72972;51.784;4.660;2023-11-21T15:25:00;21.85;;;8.70;;
83099;SDS011;72972;51.784;4.660;2023-11-21T15:27:33;20.92;;;8.77;;
83099;SDS011;72972;51.784;4.660;2023-11-21T15:29:59;21.42;;;8.48;;
83099;SDS011;72972;51.784;4.660;2023-11-21T15:32:26;20.60;;;8.27;;
83099;SDS011;72972;51.784;4.660;2023-11-21T15:37:18;23.40;;;9.27;;
83099;SDS011;72972;51.784;4.660;2023-11-21T15:39:44;20.10;;;7.75;;
83099;SDS011;72972;51.784;4.660;2023-11-21T15:42:11;23.05;;;8.00;;
83099;SDS011;72972;51.784;4.660;2023-11-21T15:44:38;26.85;;;9.52;;
83099;SDS011;72972;51.784;4.660;2023-11-21T15:47:04;21.92;;;9.02;;
83099;SDS011;72972;51.784;4.660;2023-11-21T15:49:34;24.52;;;9.93;;
83099;SDS011;72972;51.784;4.660;2023-11-21T15:52:05;20.30;;;8.23;;